AFR579 GUCY-LFPG
Flight info
| Callsign | AFR579 |
|---|---|
| Flight time | N/A |
| Altitude | 39000 |
| Route | DIRNO1D DIRNO UR72 BUMBI UM372 SADKA/N0481F410 UM372 BULIS/N0480F400 DCT MABAP UR722 SAK UG5 KORIS L27 VJF DCT GOXIP DCT LUSEM DCT LULUT DCT POI/N0470F300 DCT PEPAX UT182 KEPER |
| Aircraft | A359/H-SABDE2E3GHIJ1J2J3J4J5M1P2RWXYZ/LB1D1 |
Departure
| Time | N/A |
|---|---|
| Airport | Ahmed Sékou Touré International Airport (GUCY) |
Arrival
| Time | 2026-04-30 20:38 |
|---|---|
| Airport | Charles de Gaulle International Airport (LFPG) |
| Time | Latitude | Longitude | Altitude | Speed | Heading |
|---|---|---|---|---|---|
| 2026-04-30 20:15 | 47.96230 | 0.43697 | 22076 ft | 389 kts | 37° |
| 2026-04-30 20:15 | 47.99175 | 0.46795 | 21604 ft | 387 kts | 37° |
| 2026-04-30 20:16 | 48.00632 | 0.48330 | 21403 ft | 387 kts | 37° |
| 2026-04-30 20:16 | 48.02828 | 0.50641 | 21081 ft | 385 kts | 38° |
| 2026-04-30 20:16 | 48.05014 | 0.52943 | 20796 ft | 384 kts | 38° |
| 2026-04-30 20:16 | 48.07190 | 0.55238 | 20510 ft | 382 kts | 38° |
| 2026-04-30 20:17 | 48.09362 | 0.57530 | 20205 ft | 381 kts | 38° |
| 2026-04-30 20:17 | 48.11519 | 0.59808 | 19903 ft | 379 kts | 38° |
| 2026-04-30 20:17 | 48.13668 | 0.62080 | 19603 ft | 378 kts | 38° |
| 2026-04-30 20:17 | 48.15811 | 0.64348 | 19297 ft | 376 kts | 38° |
| 2026-04-30 20:18 | 48.17940 | 0.66604 | 19013 ft | 375 kts | 38° |
| 2026-04-30 20:18 | 48.20060 | 0.68861 | 18783 ft | 372 kts | 39° |
| 2026-04-30 20:18 | 48.22044 | 0.71491 | 18759 ft | 392 kts | 50° |
| 2026-04-30 20:18 | 48.23881 | 0.74603 | 18678 ft | 403 kts | 53° |
| 2026-04-30 20:19 | 48.25674 | 0.77837 | 18458 ft | 403 kts | 53° |
| 2026-04-30 20:19 | 48.27447 | 0.81099 | 18222 ft | 403 kts | 54° |
| 2026-04-30 20:19 | 48.29209 | 0.84366 | 17987 ft | 402 kts | 54° |
| 2026-04-30 20:19 | 48.30960 | 0.87628 | 17781 ft | 401 kts | 54° |
| 2026-04-30 20:20 | 48.32702 | 0.90882 | 17566 ft | 399 kts | 54° |
| 2026-04-30 20:20 | 48.34436 | 0.94129 | 17358 ft | 398 kts | 54° |
| 2026-04-30 20:20 | 48.36162 | 0.97365 | 17147 ft | 396 kts | 54° |
| 2026-04-30 20:20 | 48.37885 | 1.00600 | 16942 ft | 395 kts | 54° |
| 2026-04-30 20:21 | 48.39600 | 1.03825 | 16742 ft | 394 kts | 54° |
| 2026-04-30 20:21 | 48.41308 | 1.07040 | 16527 ft | 393 kts | 54° |
| 2026-04-30 20:21 | 48.43012 | 1.10254 | 16341 ft | 392 kts | 54° |
| 2026-04-30 20:21 | 48.44711 | 1.13461 | 16133 ft | 391 kts | 54° |
| 2026-04-30 20:22 | 48.46401 | 1.16653 | 15932 ft | 389 kts | 54° |
| 2026-04-30 20:22 | 48.48086 | 1.19843 | 15729 ft | 388 kts | 54° |
| 2026-04-30 20:22 | 48.49764 | 1.23021 | 15538 ft | 387 kts | 54° |
| 2026-04-30 20:22 | 48.51438 | 1.26195 | 15334 ft | 386 kts | 54° |
| 2026-04-30 20:23 | 48.53105 | 1.29361 | 15148 ft | 385 kts | 54° |
| 2026-04-30 20:23 | 48.54770 | 1.32527 | 14951 ft | 384 kts | 54° |
| 2026-04-30 20:23 | 48.56428 | 1.35683 | 14760 ft | 383 kts | 54° |
| 2026-04-30 20:23 | 48.58083 | 1.38837 | 14563 ft | 383 kts | 54° |
| 2026-04-30 20:24 | 48.59731 | 1.41981 | 14375 ft | 382 kts | 54° |
| 2026-04-30 20:24 | 48.61377 | 1.45126 | 14193 ft | 381 kts | 54° |
| 2026-04-30 20:24 | 48.63020 | 1.48266 | 14013 ft | 380 kts | 54° |
| 2026-04-30 20:24 | 48.64656 | 1.51398 | 13799 ft | 380 kts | 54° |
| 2026-04-30 20:25 | 48.67801 | 1.57420 | 12682 ft | 345 kts | 54° |
| 2026-04-30 20:25 | 48.69239 | 1.60178 | 12265 ft | 322 kts | 54° |
| 2026-04-30 20:26 | 48.71896 | 1.65291 | 11057 ft | 304 kts | 54° |
| 2026-04-30 20:26 | 48.74438 | 1.70197 | 10551 ft | 287 kts | 54° |
| 2026-04-30 20:26 | 48.75664 | 1.72567 | 10138 ft | 286 kts | 54° |
| 2026-04-30 20:27 | 48.78126 | 1.77330 | 9391 ft | 288 kts | 54° |
| 2026-04-30 20:27 | 48.80600 | 1.82122 | 8765 ft | 288 kts | 53° |
| 2026-04-30 20:28 | 48.83072 | 1.86915 | 8143 ft | 289 kts | 53° |
| 2026-04-30 20:28 | 48.85538 | 1.91709 | 7533 ft | 288 kts | 53° |
| 2026-04-30 20:29 | 48.87862 | 1.96560 | 7024 ft | 268 kts | 63° |
| 2026-04-30 20:30 | 48.90923 | 2.02522 | 6975 ft | 214 kts | 49° |
| 2026-04-30 20:30 | 48.94030 | 2.07725 | 6782 ft | 231 kts | 50° |
| 2026-04-30 20:31 | 48.96763 | 2.13686 | 5910 ft | 228 kts | 74° |
| 2026-04-30 20:32 | 48.97362 | 2.20698 | 4940 ft | 220 kts | 87° |
| 2026-04-30 20:32 | 48.97608 | 2.25120 | 4358 ft | 197 kts | 89° |
| 2026-04-30 20:33 | 48.97717 | 2.27174 | 4113 ft | 193 kts | 89° |
| 2026-04-30 20:33 | 48.97932 | 2.31180 | 3601 ft | 188 kts | 89° |
| 2026-04-30 20:33 | 48.98038 | 2.33150 | 3372 ft | 185 kts | 90° |
| 2026-04-30 20:34 | 48.98244 | 2.37004 | 2878 ft | 181 kts | 90° |
| 2026-04-30 20:34 | 48.98442 | 2.40678 | 2416 ft | 163 kts | 90° |
| 2026-04-30 20:35 | 48.98531 | 2.42327 | 2206 ft | 151 kts | 91° |
| 2026-04-30 20:35 | 48.98613 | 2.43885 | 2015 ft | 145 kts | 91° |
| 2026-04-30 20:35 | 48.98772 | 2.46853 | 1621 ft | 132 kts | 90° |
| 2026-04-30 20:36 | 48.98842 | 2.48175 | 1442 ft | 118 kts | 89° |
| 2026-04-30 20:36 | 48.98900 | 2.49387 | 1296 ft | 114 kts | 89° |
| 2026-04-30 20:36 | 48.99026 | 2.51862 | 1007 ft | 121 kts | 87° |
| 2026-04-30 20:37 | 48.99099 | 2.53124 | 835 ft | 119 kts | 86° |
| 2026-04-30 20:37 | 48.99171 | 2.54391 | 687 ft | 121 kts | 85° |
| 2026-04-30 20:37 | 48.99242 | 2.55677 | 516 ft | 122 kts | 84° |
| 2026-04-30 20:37 | 48.99311 | 2.56968 | 376 ft | 121 kts | 84° |
| 2026-04-30 20:38 | 48.99375 | 2.58085 | 364 ft | 84 kts | 85° |
| 2026-04-30 20:38 | 48.99408 | 2.58729 | 365 ft | 45 kts | 85° |
| 2026-04-30 20:38 | 48.99447 | 2.59177 | 363 ft | 39 kts | 69° |
| 2026-04-30 20:39 | 48.99593 | 2.59656 | 369 ft | 5 kts | 51° |
| 2026-04-30 20:39 | 48.99630 | 2.59686 | 368 ft | 7 kts | 15° |
| 2026-04-30 20:39 | 48.99687 | 2.59689 | 366 ft | 10 kts | 355° |
| 2026-04-30 20:40 | 48.99873 | 2.59666 | 360 ft | 16 kts | 355° |
| 2026-04-30 20:40 | 48.99998 | 2.59651 | 363 ft | 19 kts | 355° |
| 2026-04-30 20:40 | 49.00141 | 2.59634 | 366 ft | 22 kts | 355° |
| 2026-04-30 20:41 | 49.00375 | 2.59604 | 361 ft | 10 kts | 349° |
| 2026-04-30 20:41 | 49.00409 | 2.59511 | 364 ft | 11 kts | 275° |
| 2026-04-30 20:41 | 49.00402 | 2.59378 | 366 ft | 14 kts | 260° |
| 2026-04-30 20:41 | 49.00395 | 2.59308 | 363 ft | 1 kts | 264° |
| 2026-04-30 20:42 | 49.00391 | 2.59238 | 361 ft | 8 kts | 266° |
| 2026-04-30 20:42 | 49.00390 | 2.59210 | 368 ft | 1 kts | 265° |
| 2026-04-30 20:42 | 49.00389 | 2.59184 | 367 ft | 0 kts | 265° |